Time;durP1;ratioP1;P1;durP2;ratioP2;P2;SDS_P1;SDS_P2;PMS_P1;PMS_P2;Temp;Humidity;BMP_temperature;BMP_pressure;BME280_temperature;BME280_humidity;BME280_pressure;Samples;Min_cycle;Max_cycle;Signal;HPM_P1;HPM_P2
2022/04/04 05:00:40;;;;;;;22.43;18.33;;;-1.50;97.20;;;;;;1701146;29;20179;-64
2022/04/04 05:01:31;;;;;;;21.10;17.60;;;-1.50;97.20;;;;;;1701017;29;20218;-63
2022/04/04 05:02:23;;;;;;;24.70;19.77;;;-1.50;97.20;;;;;;1701050;29;20289;-63
2022/04/04 05:03:26;;;;;;;30.65;22.90;;;-1.50;97.20;;;;;;1700960;29;20207;-63
2022/04/04 05:04:17;;;;;;;26.52;21.67;;;-1.40;97.20;;;;;;1700823;29;20207;-63
2022/04/04 05:05:09;;;;;;;26.25;20.77;;;-1.40;97.20;;;;;;1700897;29;20602;-63
2022/04/04 05:06:02;;;;;;;24.90;19.17;;;-1.50;97.20;;;;;;1700977;29;20209;-64
2022/04/04 05:06:53;;;;;;;19.55;17.00;;;-1.40;97.20;;;;;;1700852;29;20218;-63
2022/04/04 05:07:45;;;;;;;18.30;16.40;;;-1.50;97.20;;;;;;1700951;29;20294;-63
2022/04/04 05:08:35;;;;;;;17.33;15.60;;;-1.50;97.20;;;;;;1700628;29;20211;-64
2022/04/04 05:09:27;;;;;;;15.73;13.80;;;-1.50;97.20;;;;;;1700858;29;20290;-63
2022/04/04 05:10:18;;;;;;;14.30;12.88;;;-1.50;97.20;;;;;;1700965;29;20234;-64
2022/04/04 05:11:10;;;;;;;14.53;13.03;;;-1.50;97.20;;;;;;1700975;29;20250;-63
2022/04/04 05:12:00;;;;;;;16.98;15.05;;;-1.50;97.20;;;;;;1700895;29;20451;-64
2022/04/04 05:12:53;;;;;;;14.00;12.70;;;-1.50;97.20;;;;;;1700993;29;20207;-63
2022/04/04 05:13:44;;;;;;;13.65;12.35;;;-1.40;97.20;;;;;;1700745;29;20487;-63
2022/04/04 05:14:37;;;;;;;14.10;12.73;;;-1.50;97.20;;;;;;1700970;29;20262;-64
2022/04/04 05:15:27;;;;;;;12.63;11.50;;;-1.50;97.20;;;;;;1700878;29;20211;-64
2022/04/04 05:16:20;;;;;;;13.73;12.60;;;-1.50;97.20;;;;;;1701056;29;20207;-64
2022/04/04 05:17:11;;;;;;;13.02;11.93;;;-1.50;97.20;;;;;;1700899;29;20243;-64
2022/04/04 05:18:03;;;;;;;14.23;12.90;;;-1.50;97.20;;;;;;1700644;29;20219;-64
2022/04/04 05:18:55;;;;;;;13.70;12.30;;;-1.50;97.20;;;;;;1700921;29;20199;-64
2022/04/04 05:19:46;;;;;;;12.63;11.50;;;-1.50;97.20;;;;;;1700782;29;20203;-64
2022/04/04 05:20:37;;;;;;;12.68;11.48;;;-1.50;97.20;;;;;;1700661;29;20223;-64
2022/04/04 05:21:30;;;;;;;12.80;11.60;;;-1.50;97.20;;;;;;1700853;29;20195;-63
2022/04/04 05:22:20;;;;;;;13.30;12.10;;;-1.50;97.20;;;;;;1700888;29;20207;-63
2022/04/04 05:23:13;;;;;;;14.23;12.97;;;-1.50;97.20;;;;;;1700826;29;20251;-64
2022/04/04 05:24:05;;;;;;;15.35;14.00;;;-1.50;97.20;;;;;;1700790;29;20227;-63
2022/04/04 05:24:57;;;;;;;14.85;13.55;;;-1.50;97.20;;;;;;1700860;29;20737;-63
2022/04/04 05:25:48;;;;;;;13.25;12.05;;;-1.50;97.20;;;;;;1700763;29;20211;-64
2022/04/04 05:26:40;;;;;;;12.40;11.30;;;-1.50;97.20;;;;;;1700862;29;20207;-72
2022/04/04 05:27:30;;;;;;;12.75;11.55;;;-1.50;97.20;;;;;;1700872;29;20203;-68
2022/04/04 05:28:22;;;;;;;12.27;11.07;;;-1.50;97.20;;;;;;1700589;29;20199;-68
2022/04/04 05:29:15;;;;;;;12.55;11.35;;;-1.50;97.20;;;;;;1700654;29;20203;-67
2022/04/04 05:30:09;;;;;;;12.65;11.30;;;-1.50;97.20;;;;;;1700774;29;20214;-67
2022/04/04 05:31:00;;;;;;;13.02;11.73;;;-1.50;97.20;;;;;;1700821;29;20237;-68
2022/04/04 05:31:54;;;;;;;12.27;11.18;;;-1.50;97.20;;;;;;1700839;29;20688;-68
2022/04/04 05:32:44;;;;;;;11.70;10.57;;;-1.50;97.20;;;;;;1700749;29;20204;-67
2022/04/04 05:33:36;;;;;;;12.73;11.43;;;-1.50;97.20;;;;;;1700527;29;20868;-68
2022/04/04 05:34:27;;;;;;;12.80;11.40;;;-1.50;97.20;;;;;;1700669;29;20208;-68
2022/04/04 05:35:19;;;;;;;12.17;11.00;;;-1.40;97.20;;;;;;1700709;29;20211;-69
2022/04/04 05:36:10;;;;;;;14.73;13.32;;;-1.40;97.20;;;;;;1700580;29;20625;-68
2022/04/04 05:37:04;;;;;;;21.90;17.83;;;-1.40;97.20;;;;;;1700701;29;20226;-68
2022/04/04 05:37:55;;;;;;;26.30;21.95;;;-1.30;97.20;;;;;;1700747;29;20269;-68
2022/04/04 05:38:47;;;;;;;31.55;26.65;;;-1.30;97.20;;;;;;1700183;29;20262;-68
2022/04/04 05:39:38;;;;;;;48.03;36.45;;;-1.30;97.20;;;;;;1696367;29;20346;-69
2022/04/04 05:40:30;;;;;;;57.87;41.47;;;-1.30;97.20;;;;;;1700247;29;20247;-69
2022/04/04 05:41:20;;;;;;;80.50;52.97;;;-1.20;97.20;;;;;;1700766;29;20211;-68
2022/04/04 05:42:12;;;;;;;94.77;58.87;;;-1.20;97.20;;;;;;1697614;29;20200;-68
2022/04/04 05:43:03;;;;;;;106.53;64.38;;;-1.20;97.20;;;;;;1694245;29;20235;-68
2022/04/04 05:43:55;;;;;;;127.67;75.33;;;-1.10;97.20;;;;;;1694199;29;20245;-68
2022/04/04 05:44:46;;;;;;;129.20;77.15;;;-1.10;97.20;;;;;;1694136;29;20758;-68
2022/04/04 05:45:39;;;;;;;111.63;62.50;;;-1.10;97.20;;;;;;1696465;29;20639;-67
2022/04/04 05:46:30;;;;;;;89.70;53.97;;;-1.00;97.20;;;;;;1699763;29;20215;-68
2022/04/04 05:47:23;;;;;;;67.67;40.43;;;-1.00;97.20;;;;;;1700472;29;20251;-68
2022/04/04 05:48:14;;;;;;;56.50;35.88;;;-1.00;97.20;;;;;;1700142;29;20254;-73
2022/04/04 05:49:06;;;;;;;47.23;30.57;;;-1.00;97.20;;;;;;1700517;29;20214;-71
2022/04/04 05:49:57;;;;;;;31.02;22.70;;;-1.00;97.20;;;;;;1700558;29;20278;-71
2022/04/04 05:50:49;;;;;;;26.45;20.23;;;-0.90;97.20;;;;;;1700535;29;20202;-70
2022/04/04 05:51:39;;;;;;;23.60;17.55;;;-0.90;97.20;;;;;;1699780;29;20281;-71
2022/04/04 05:52:33;;;;;;;18.13;16.17;;;-0.90;97.20;;;;;;1700559;29;20230;-70
2022/04/04 05:53:24;;;;;;;17.52;15.38;;;-0.90;97.20;;;;;;1700242;29;20458;-70
2022/04/04 05:54:15;;;;;;;14.57;12.27;;;-1.00;97.20;;;;;;1700691;29;20233;-70
2022/04/04 05:55:07;;;;;;;14.27;12.98;;;-1.00;97.20;;;;;;1700513;29;20215;-70
2022/04/04 05:55:59;;;;;;;13.40;12.10;;;-1.00;97.20;;;;;;1700725;29;20574;-70
2022/04/04 05:56:49;;;;;;;15.00;12.82;;;-1.00;97.20;;;;;;1699744;29;20620;-70
2022/04/04 05:57:41;;;;;;;12.73;11.57;;;-1.00;97.20;;;;;;1700532;29;20199;-71
2022/04/04 05:58:32;;;;;;;13.20;11.90;;;-1.00;97.20;;;;;;1700404;29;20681;-70
2022/04/04 05:59:24;;;;;;;13.67;12.37;;;-1.00;97.20;;;;;;1700582;29;20682;-70
2022/04/04 06:00:15;;;;;;;13.48;12.18;;;-1.00;97.20;;;;;;1700430;29;20210;-70
2022/04/04 06:01:08;;;;;;;12.98;11.77;;;-1.00;97.20;;;;;;1693882;29;20200;-70
2022/04/04 06:01:59;;;;;;;13.00;11.70;;;-1.00;97.20;;;;;;1694099;29;20347;-70
2022/04/04 06:02:52;;;;;;;13.20;12.00;;;-1.00;97.20;;;;;;1694023;29;20916;-70
2022/04/04 06:03:43;;;;;;;11.82;10.73;;;-0.90;97.20;;;;;;1693935;29;20286;-71
2022/04/04 06:04:34;;;;;;;12.90;11.77;;;-0.90;97.20;;;;;;1693971;29;20264;-70
2022/04/04 06:05:25;;;;;;;13.45;12.15;;;-0.90;97.20;;;;;;1694064;29;20283;-70
2022/04/04 06:06:17;;;;;;;13.40;12.17;;;-0.90;97.20;;;;;;1694021;29;20207;-70
2022/04/04 06:07:08;;;;;;;12.32;11.02;;;-0.90;97.20;;;;;;1699352;29;20460;-70
2022/04/04 06:08:00;;;;;;;13.20;12.00;;;-0.90;97.20;;;;;;1700650;29;20203;-70
2022/04/04 06:08:51;;;;;;;13.73;12.35;;;-0.90;97.20;;;;;;1700658;29;20856;-70
2022/04/04 06:09:42;;;;;;;12.67;11.57;;;-0.90;97.20;;;;;;1700527;29;20668;-70
2022/04/04 06:10:33;;;;;;;12.98;11.77;;;-0.90;97.20;;;;;;1700518;29;20234;-71
2022/04/04 06:11:25;;;;;;;13.23;11.93;;;-0.80;97.20;;;;;;1700182;29;20194;-70
2022/04/04 06:12:16;;;;;;;12.38;11.23;;;-0.80;97.20;;;;;;1700567;29;20207;-70
2022/04/04 06:13:08;;;;;;;12.90;11.60;;;-0.80;97.20;;;;;;1700578;29;20307;-70
2022/04/04 06:14:00;;;;;;;13.43;12.13;;;-0.80;97.20;;;;;;1700349;29;20235;-71
2022/04/04 06:14:51;;;;;;;12.80;11.65;;;-0.80;97.20;;;;;;1700501;29;20207;-70
2022/04/04 06:15:43;;;;;;;13.93;12.65;;;-0.80;97.20;;;;;;1700536;29;20195;-70
2022/04/04 06:16:34;;;;;;;13.88;12.40;;;-0.80;97.20;;;;;;1700121;29;20689;-71
2022/04/04 06:17:26;;;;;;;13.37;12.17;;;-0.70;97.20;;;;;;1700592;29;20564;-70
2022/04/04 06:18:18;;;;;;;13.35;12.07;;;-0.70;97.20;;;;;;1700428;29;20207;-70
2022/04/04 06:19:10;;;;;;;12.23;11.13;;;-0.70;97.20;;;;;;1700442;29;20582;-70
2022/04/04 06:20:01;;;;;;;13.45;12.15;;;-0.70;97.20;;;;;;1700515;29;20222;-70
2022/04/04 06:20:52;;;;;;;13.23;12.00;;;-0.60;97.20;;;;;;1700534;29;20729;-71
2022/04/04 06:21:44;;;;;;;13.50;12.13;;;-0.60;97.20;;;;;;1700483;29;20238;-70
2022/04/04 06:22:36;;;;;;;12.65;11.48;;;-0.60;97.20;;;;;;1700604;29;20693;-71
2022/04/04 06:23:28;;;;;;;12.90;11.70;;;-0.60;97.20;;;;;;1700406;29;20235;-70
2022/04/04 06:24:19;;;;;;;13.07;11.98;;;-0.50;97.20;;;;;;1700524;29;20230;-71
2022/04/04 06:25:13;;;;;;;13.13;11.93;;;-0.50;97.20;;;;;;1700142;29;20200;-71
2022/04/04 06:26:05;;;;;;;13.07;11.88;;;-0.40;97.20;;;;;;1700397;29;20238;-70
2022/04/04 06:26:56;;;;;;;12.50;11.30;;;-0.40;97.20;;;;;;1699366;29;20210;-70
2022/04/04 06:27:47;;;;;;;14.45;12.45;;;-0.40;97.20;;;;;;1699537;29;20807;-70
2022/04/04 06:28:39;;;;;;;12.07;11.00;;;-0.30;97.20;;;;;;1699766;29;20195;-70
2022/04/04 06:29:30;;;;;;;13.18;12.00;;;-0.30;97.20;;;;;;1700295;29;20203;-70
2022/04/04 06:30:22;;;;;;;12.70;11.50;;;-0.30;97.20;;;;;;1698891;29;20234;-70
2022/04/04 06:31:13;;;;;;;12.90;11.65;;;-0.20;97.20;;;;;;1693909;29;21029;-71
2022/04/04 06:32:05;;;;;;;12.63;11.33;;;-0.20;97.20;;;;;;1694039;29;20581;-70
2022/04/04 06:32:55;;;;;;;12.65;11.45;;;-0.20;97.20;;;;;;1694143;29;20592;-70
2022/04/04 06:33:49;;;;;;;13.20;11.90;;;-0.20;97.20;;;;;;1693839;29;20224;-71
2022/04/04 06:34:39;;;;;;;12.65;11.45;;;-0.20;97.20;;;;;;1693772;29;20208;-70
2022/04/04 06:35:31;;;;;;;12.60;11.40;;;-0.10;97.20;;;;;;1693455;29;20204;-70
2022/04/04 06:36:23;;;;;;;13.10;11.85;;;-0.10;97.20;;;;;;1694009;29;20738;-70
2022/04/04 06:37:15;;;;;;;12.10;11.00;;;-0.10;97.20;;;;;;1694164;29;20413;-70
2022/04/04 06:38:06;;;;;;;14.20;12.90;;;-0.10;97.20;;;;;;1693758;29;20212;-71
2022/04/04 06:38:58;;;;;;;12.50;11.20;;;0.00;97.20;;;;;;1694045;29;20208;-70
2022/04/04 06:39:49;;;;;;;11.93;10.73;;;0.00;97.20;;;;;;1693849;29;20479;-71
2022/04/04 06:40:40;;;;;;;13.00;11.90;;;0.00;97.20;;;;;;1697569;29;20198;-71
2022/04/04 06:41:31;;;;;;;12.27;11.15;;;0.00;97.20;;;;;;1700444;29;20973;-71
2022/04/04 06:42:23;;;;;;;12.07;11.02;;;0.10;97.20;;;;;;1700589;29;20219;-71
2022/04/04 06:43:14;;;;;;;12.15;10.98;;;0.10;97.20;;;;;;1700679;29;20608;-71
2022/04/04 06:44:06;;;;;;;11.90;10.80;;;0.10;97.20;;;;;;1700477;29;20598;-71
2022/04/04 06:44:58;;;;;;;13.13;11.93;;;0.20;97.20;;;;;;1700561;29;20235;-71
2022/04/04 06:45:50;;;;;;;12.93;11.70;;;0.20;97.20;;;;;;1700589;29;20203;-70
2022/04/04 06:46:41;;;;;;;13.18;11.98;;;0.20;97.20;;;;;;1700720;29;20582;-70
2022/04/04 06:47:32;;;;;;;13.63;12.43;;;0.30;97.20;;;;;;1700560;29;20659;-70
2022/04/04 06:48:23;;;;;;;12.80;11.50;;;0.30;97.20;;;;;;1700125;29;20209;-71
2022/04/04 06:49:16;;;;;;;13.03;11.83;;;0.40;97.20;;;;;;1700506;29;20298;-71
2022/04/04 06:50:08;;;;;;;12.25;11.15;;;0.40;97.20;;;;;;1700511;29;20566;-70
2022/04/04 06:51:01;;;;;;;12.10;11.00;;;0.50;97.20;;;;;;1694396;29;20199;-70
2022/04/04 06:51:52;;;;;;;12.35;11.25;;;0.50;97.20;;;;;;1693992;29;20303;-70
2022/04/04 06:52:44;;;;;;;11.57;10.45;;;0.50;97.20;;;;;;1694120;29;20204;-71
2022/04/04 06:53:35;;;;;;;11.48;10.27;;;0.60;97.20;;;;;;1693980;29;20211;-72
2022/04/04 06:54:27;;;;;;;11.90;10.83;;;0.70;97.20;;;;;;1694044;29;20215;-70
2022/04/04 06:55:19;;;;;;;12.65;11.32;;;0.70;97.20;;;;;;1694029;29;20204;-71
2022/04/04 06:56:10;;;;;;;13.20;11.93;;;0.80;97.20;;;;;;1693997;29;20200;-71
2022/04/04 06:57:01;;;;;;;10.80;9.80;;;0.80;97.20;;;;;;1693978;29;20204;-70
2022/04/04 06:57:53;;;;;;;11.97;10.70;;;0.90;97.20;;;;;;1694054;29;20408;-70
2022/04/04 06:58:44;;;;;;;11.68;10.48;;;0.90;97.20;;;;;;1693698;29;20451;-70
2022/04/04 06:59:36;;;;;;;11.23;10.23;;;1.00;97.20;;;;;;1694044;29;20203;-70
2022/04/04 07:00:26;;;;;;;11.40;10.27;;;1.00;97.20;;;;;;1694764;29;20681;-70
2022/04/04 07:01:18;;;;;;;11.50;10.40;;;1.00;97.20;;;;;;1700528;29;20662;-70
2022/04/04 07:02:09;;;;;;;12.13;10.98;;;1.10;97.20;;;;;;1700433;29;20617;-70
2022/04/04 07:03:01;;;;;;;11.63;10.47;;;1.10;97.20;;;;;;1700581;29;20578;-70
2022/04/04 07:03:52;;;;;;;11.45;10.35;;;1.20;97.20;;;;;;1700420;29;20314;-70
2022/04/04 07:04:45;;;;;;;10.47;9.47;;;1.20;97.20;;;;;;1700603;29;20242;-70
2022/04/04 07:05:35;;;;;;;10.25;9.35;;;1.30;97.20;;;;;;1700551;29;20246;-70
2022/04/04 07:06:27;;;;;;;10.97;9.83;;;1.40;97.20;;;;;;1700519;29;20236;-71
2022/04/04 07:07:20;;;;;;;10.82;9.73;;;1.40;97.20;;;;;;1701359;29;20207;-71
2022/04/04 07:08:12;;;;;;;10.43;9.43;;;1.40;97.20;;;;;;1701481;29;20262;-71
2022/04/04 07:09:03;;;;;;;10.60;9.50;;;1.50;97.20;;;;;;1701727;29;20569;-70
2022/04/04 07:09:56;;;;;;;10.27;9.38;;;1.50;97.20;;;;;;1701766;29;20641;-70
2022/04/04 07:10:47;;;;;;;10.27;9.27;;;1.60;97.20;;;;;;1698007;29;20762;-70
2022/04/04 07:11:40;;;;;;;9.82;8.93;;;1.60;97.20;;;;;;1695119;29;20200;-70
2022/04/04 07:12:31;;;;;;;10.77;9.15;;;1.60;97.20;;;;;;1695020;29;20235;-71
2022/04/04 07:13:22;;;;;;;10.50;9.53;;;1.70;97.20;;;;;;1695125;29;20242;-70
2022/04/04 07:14:13;;;;;;;11.30;10.07;;;1.70;97.20;;;;;;1695165;29;20475;-70
2022/04/04 07:15:05;;;;;;;11.03;9.97;;;1.80;97.20;;;;;;1695134;29;20203;-71
2022/04/04 07:15:56;;;;;;;11.70;9.93;;;1.80;97.20;;;;;;1695173;29;20241;-71
2022/04/04 07:16:51;;;;;;;10.80;9.80;;;1.80;97.20;;;;;;1695148;29;20203;-71
2022/04/04 07:17:43;;;;;;;10.40;9.48;;;1.90;97.20;;;;;;1695068;29;20215;-71
2022/04/04 07:18:35;;;;;;;10.18;9.27;;;1.90;97.20;;;;;;1694772;29;20212;-71
2022/04/04 07:19:32;;;;;;;10.50;9.50;;;2.00;97.20;;;;;;1694963;29;20258;-71
2022/04/04 07:20:25;;;;;;;10.57;9.48;;;2.00;97.20;;;;;;1695060;29;20693;-71
2022/04/04 07:21:17;;;;;;;10.10;9.20;;;2.10;97.20;;;;;;1701650;29;20214;-71
2022/04/04 07:22:09;;;;;;;10.48;9.48;;;2.20;97.20;;;;;;1701675;29;20210;-70
2022/04/04 07:23:01;;;;;;;10.63;8.80;;;2.20;97.20;;;;;;1701677;29;20667;-70
2022/04/04 07:23:52;;;;;;;9.43;8.52;;;2.20;97.20;;;;;;1701574;29;20227;-70
2022/04/04 07:24:44;;;;;;;9.60;8.70;;;2.30;97.20;;;;;;1701580;29;20294;-70
2022/04/04 07:25:36;;;;;;;9.82;8.93;;;2.30;97.20;;;;;;1701616;29;20207;-70
2022/04/04 07:26:28;;;;;;;9.82;8.85;;;2.40;97.20;;;;;;1701617;29;20580;-70
2022/04/04 07:27:20;;;;;;;10.07;8.95;;;2.40;97.20;;;;;;1701627;29;20671;-70
2022/04/04 07:28:12;;;;;;;10.40;9.40;;;2.40;97.20;;;;;;1701304;29;20249;-70
2022/04/04 07:29:04;;;;;;;10.27;9.38;;;2.50;97.20;;;;;;1701646;29;20207;-70
2022/04/04 07:29:55;;;;;;;9.50;8.60;;;2.50;97.20;;;;;;1701482;29;20242;-70
2022/04/04 07:30:47;;;;;;;9.53;8.63;;;2.60;97.20;;;;;;1695878;29;20204;-70
2022/04/04 07:31:38;;;;;;;9.90;8.90;;;2.60;97.20;;;;;;1695011;29;20207;-70
2022/04/04 07:32:30;;;;;;;9.10;8.30;;;2.70;97.20;;;;;;1698294;29;20234;-70
2022/04/04 07:33:21;;;;;;;9.93;8.93;;;2.80;97.20;;;;;;1701440;29;20206;-71
2022/04/04 07:34:14;;;;;;;9.67;8.67;;;2.80;97.20;;;;;;1701626;29;20226;-70
2022/04/04 07:35:09;;;;;;;9.18;8.27;;;2.90;97.20;;;;;;1701576;29;20211;-70
2022/04/04 07:36:01;;;;;;;9.52;8.63;;;3.00;97.20;;;;;;1701587;29;20211;-70
2022/04/04 07:36:53;;;;;;;9.70;8.70;;;3.10;97.20;;;;;;1701554;29;20677;-71
2022/04/04 07:37:46;;;;;;;9.25;8.45;;;3.20;97.20;;;;;;1701589;29;20218;-71
2022/04/04 07:38:38;;;;;;;9.45;8.48;;;3.30;97.20;;;;;;1701255;29;20207;-70
2022/04/04 07:39:29;;;;;;;8.65;7.85;;;3.30;97.20;;;;;;1701391;29;20207;-71
2022/04/04 07:40:22;;;;;;;8.90;8.00;;;3.40;97.20;;;;;;1699518;29;20214;-71
2022/04/04 07:41:12;;;;;;;9.82;8.88;;;3.50;97.20;;;;;;1694954;29;20211;-70
2022/04/04 07:42:05;;;;;;;9.00;8.20;;;3.50;97.20;;;;;;1694946;29;20200;-70
2022/04/04 07:42:56;;;;;;;8.52;7.68;;;3.50;97.20;;;;;;1694936;29;20262;-70
2022/04/04 07:43:48;;;;;;;9.07;8.10;;;3.50;97.20;;;;;;1694892;29;20280;-70
2022/04/04 07:44:39;;;;;;;12.40;8.10;;;3.60;97.20;;;;;;1694918;29;20254;-70
2022/04/04 07:45:31;;;;;;;9.45;8.57;;;3.70;97.20;;;;;;1694875;29;20207;-70
2022/04/04 07:46:22;;;;;;;8.52;7.72;;;3.70;97.20;;;;;;1694891;29;20211;-70
2022/04/04 07:47:14;;;;;;;9.33;8.47;;;3.80;97.20;;;;;;1694998;29;20206;-70
2022/04/04 07:48:06;;;;;;;9.40;8.50;;;3.90;97.20;;;;;;1694568;29;20246;-71
2022/04/04 07:48:57;;;;;;;7.97;7.30;;;3.90;97.20;;;;;;1694887;29;20604;-71
2022/04/04 07:49:49;;;;;;;10.60;8.40;;;4.00;97.20;;;;;;1694827;29;20223;-71
2022/04/04 07:50:41;;;;;;;9.00;8.20;;;4.00;97.20;;;;;;1698883;29;20238;-70
2022/04/04 07:51:35;;;;;;;9.02;8.13;;;4.10;97.20;;;;;;1701467;29;20199;-71
2022/04/04 07:52:27;;;;;;;9.00;8.20;;;4.20;97.20;;;;;;1701364;29;20254;-70
2022/04/04 07:53:18;;;;;;;8.60;7.80;;;4.20;97.20;;;;;;1701471;29;20207;-70
2022/04/04 07:54:10;;;;;;;9.90;8.00;;;4.30;97.20;;;;;;1701437;29;20274;-71
2022/04/04 07:55:01;;;;;;;8.23;7.53;;;4.40;97.20;;;;;;1701493;29;20242;-70
2022/04/04 07:55:53;;;;;;;8.35;7.65;;;4.40;97.20;;;;;;1701399;29;20195;-71
2022/04/04 07:56:44;;;;;;;8.02;7.30;;;4.40;97.20;;;;;;1701436;29;20203;-71
2022/04/04 07:57:36;;;;;;;7.63;6.93;;;4.50;97.20;;;;;;1701460;29;20192;-70
2022/04/04 07:58:27;;;;;;;7.82;7.03;;;4.50;97.20;;;;;;1701116;29;20235;-71
2022/04/04 07:59:18;;;;;;;8.67;7.77;;;4.60;97.20;;;;;;1699272;29;20202;-71
2022/04/04 08:00:12;;;;;;;8.45;7.65;;;4.60;97.20;;;;;;1701450;29;20219;-70
2022/04/04 08:01:04;;;;;;;8.82;7.88;;;4.70;97.20;;;;;;1696408;29;20204;-71
2022/04/04 08:01:55;;;;;;;8.35;7.55;;;4.80;97.20;;;;;;1695033;29;20199;-71
2022/04/04 08:02:47;;;;;;;8.60;7.65;;;4.90;97.20;;;;;;1701371;29;20323;-72
2022/04/04 08:03:37;;;;;;;8.57;7.88;;;5.00;97.20;;;;;;1701404;29;20206;-71
2022/04/04 08:04:29;;;;;;;8.63;7.73;;;5.10;97.20;;;;;;1700988;29;20195;-71
2022/04/04 08:05:21;;;;;;;7.68;6.90;;;5.10;97.20;;;;;;1697384;29;20226;-71
2022/04/04 08:06:12;;;;;;;9.43;8.52;;;5.20;97.20;;;;;;1700092;29;20196;-71
2022/04/04 08:07:05;;;;;;;8.25;7.45;;;5.30;97.20;;;;;;1701058;29;20226;-71
2022/04/04 08:07:56;;;;;;;7.60;6.90;;;5.30;97.20;;;;;;1698214;29;20211;-70
2022/04/04 08:08:47;;;;;;;7.15;6.55;;;5.40;97.20;;;;;;1696326;29;20202;-70
2022/04/04 08:09:39;;;;;;;7.50;6.80;;;5.40;97.20;;;;;;1694800;29;20223;-71
2022/04/04 08:10:29;;;;;;;7.80;7.07;;;5.40;97.20;;;;;;1699398;29;20238;-71
2022/04/04 08:11:21;;;;;;;8.53;7.70;;;5.40;97.20;;;;;;1701418;29;20214;-70
2022/04/04 08:12:12;;;;;;;8.55;7.75;;;5.50;97.20;;;;;;1701257;29;20640;-71
2022/04/04 08:13:04;;;;;;;7.80;6.60;;;5.50;97.20;;;;;;1701289;29;20235;-70
2022/04/04 08:13:55;;;;;;;8.35;7.30;;;5.60;97.20;;;;;;1698922;29;20483;-70
2022/04/04 08:14:49;;;;;;;9.00;6.77;;;5.70;97.20;;;;;;1694806;29;20218;-71
2022/04/04 08:15:39;;;;;;;7.38;6.78;;;5.70;97.20;;;;;;1698070;29;20453;-71
2022/04/04 08:16:31;;;;;;;8.00;7.30;;;5.80;97.20;;;;;;1695606;29;20205;-71
2022/04/04 08:17:22;;;;;;;7.00;6.30;;;5.80;97.20;;;;;;1695059;29;20224;-71
2022/04/04 08:18:14;;;;;;;7.30;6.70;;;5.90;97.20;;;;;;1694992;29;20259;-71
2022/04/04 08:19:05;;;;;;;8.02;6.78;;;6.00;97.20;;;;;;1698300;29;20203;-70
2022/04/04 08:19:57;;;;;;;8.13;7.43;;;6.00;97.20;;;;;;1696437;29;20203;-70
2022/04/04 08:20:47;;;;;;;8.38;7.38;;;6.00;97.20;;;;;;1697207;29;21336;-71
2022/04/04 08:21:41;;;;;;;8.60;7.70;;;6.10;97.20;;;;;;1699214;29;20658;-71
2022/04/04 08:22:40;;;;;;;7.80;7.10;;;6.10;97.20;;;;;;1699741;29;20451;-70
2022/04/04 08:23:31;;;;;;;7.35;6.75;;;6.10;97.20;;;;;;1697453;29;20204;-71
2022/04/04 08:24:23;;;;;;;9.70;6.83;;;6.10;97.20;;;;;;1698939;29;20738;-71
2022/04/04 08:25:15;;;;;;;7.97;7.18;;;6.10;97.20;;;;;;1694623;29;20482;-71
2022/04/04 08:26:07;;;;;;;7.75;7.05;;;6.20;97.20;;;;;;1699261;29;20649;-71
2022/04/04 08:26:58;;;;;;;8.93;8.02;;;6.20;97.20;;;;;;1697606;29;20199;-70
2022/04/04 08:27:49;;;;;;;8.00;7.30;;;6.20;97.20;;;;;;1699416;29;20191;-71
2022/04/04 08:28:40;;;;;;;8.93;7.78;;;6.20;97.20;;;;;;1698858;29;20470;-71
2022/04/04 08:29:32;;;;;;;7.70;6.90;;;6.20;97.20;;;;;;1697484;29;20192;-71
2022/04/04 08:30:23;;;;;;;8.45;7.75;;;6.20;97.20;;;;;;1694894;29;20459;-71
2022/04/04 08:31:15;;;;;;;7.60;6.90;;;6.20;97.20;;;;;;1694672;29;20214;-71
2022/04/04 08:32:07;;;;;;;7.35;6.75;;;6.20;97.20;;;;;;1699098;29;20675;-71
2022/04/04 08:32:58;;;;;;;7.18;6.57;;;6.30;97.20;;;;;;1696288;29;20275;-72
2022/04/04 08:33:49;;;;;;;8.15;7.35;;;6.40;97.20;;;;;;1697417;29;20713;-71
2022/04/04 08:34:41;;;;;;;9.03;7.10;;;6.40;97.20;;;;;;1701271;29;20670;-71
2022/04/04 08:35:32;;;;;;;7.55;6.85;;;6.50;97.20;;;;;;1701218;29;20238;-71
2022/04/04 08:36:24;;;;;;;7.70;7.10;;;6.50;97.20;;;;;;1697347;29;20199;-71
2022/04/04 08:37:15;;;;;;;7.80;7.10;;;6.50;97.20;;;;;;1698617;29;20447;-72
2022/04/04 08:38:08;;;;;;;7.43;6.70;;;6.60;97.20;;;;;;1698672;29;20289;-71
2022/04/04 08:38:59;;;;;;;7.85;7.15;;;6.70;97.20;;;;;;1701153;29;20238;-72
2022/04/04 08:39:50;;;;;;;7.67;6.97;;;6.80;97.20;;;;;;1701139;29;20203;-71
2022/04/04 08:40:44;;;;;;;7.53;6.60;;;6.90;97.20;;;;;;1701119;29;20310;-71
2022/04/04 08:41:37;;;;;;;7.72;6.90;;;6.90;97.20;;;;;;1701172;29;20196;-71
2022/04/04 08:42:28;;;;;;;7.70;7.10;;;7.00;97.20;;;;;;1701061;29;20234;-71
2022/04/04 08:43:20;;;;;;;7.57;6.97;;;7.00;97.20;;;;;;1701194;29;20217;-72
2022/04/04 08:44:14;;;;;;;8.00;7.30;;;7.00;97.20;;;;;;1699260;29;20475;-71
2022/04/04 08:45:07;;;;;;;7.93;7.20;;;7.00;97.20;;;;;;1694546;29;20746;-72
2022/04/04 08:45:58;;;;;;;8.40;7.65;;;7.00;97.20;;;;;;1694636;29;20211;-71
2022/04/04 08:46:51;;;;;;;9.95;6.88;;;7.00;97.20;;;;;;1694551;29;20206;-71
2022/04/04 08:47:42;;;;;;;8.73;7.82;;;7.10;97.20;;;;;;1694540;29;20676;-71
2022/04/04 08:48:35;;;;;;;7.80;7.00;;;7.20;97.20;;;;;;1694192;29;20303;-71
2022/04/04 08:49:27;;;;;;;7.68;6.97;;;7.30;97.20;;;;;;1694436;29;20235;-71
2022/04/04 08:50:19;;;;;;;7.32;6.63;;;7.40;97.20;;;;;;1694503;29;20208;-71
2022/04/04 08:51:10;;;;;;;7.47;6.88;;;7.50;97.20;;;;;;1694538;29;20583;-71
2022/04/04 08:52:02;;;;;;;8.25;7.45;;;7.50;97.20;;;;;;1694575;29;20578;-71
2022/04/04 08:52:53;;;;;;;7.20;6.60;;;7.60;97.20;;;;;;1694448;29;20263;-71
2022/04/04 08:53:46;;;;;;;8.40;7.60;;;7.70;97.20;;;;;;1694449;29;20235;-71
2022/04/04 08:54:37;;;;;;;7.93;7.15;;;7.70;97.20;;;;;;1699491;29;20199;-71
2022/04/04 08:55:29;;;;;;;8.17;7.47;;;7.80;97.20;;;;;;1701071;29;20214;-71
2022/04/04 08:56:21;;;;;;;9.02;8.23;;;7.80;97.20;;;;;;1701018;29;20250;-71
2022/04/04 08:57:13;;;;;;;8.77;7.93;;;7.90;97.20;;;;;;1701071;29;20462;-71
2022/04/04 08:58:04;;;;;;;8.18;7.43;;;7.90;97.20;;;;;;1700704;29;20222;-72
2022/04/04 08:58:57;;;;;;;7.68;6.97;;;7.90;97.20;;;;;;1701060;29;20291;-71
2022/04/04 08:59:48;;;;;;;7.80;7.10;;;8.00;97.20;;;;;;1700912;29;20669;-71
2022/04/04 09:00:40;;;;;;;7.43;6.83;;;8.10;97.20;;;;;;1699091;29;20574;-71
2022/04/04 09:01:31;;;;;;;7.10;6.50;;;8.20;97.20;;;;;;1694426;29;21034;-71
2022/04/04 09:02:22;;;;;;;8.03;7.23;;;8.30;97.20;;;;;;1694464;29;20751;-71
2022/04/04 09:03:20;;;;;;;8.90;8.00;;;8.40;97.20;;;;;;1694498;29;20233;-71
2022/04/04 09:04:19;;;;;;;7.75;7.03;;;8.50;97.20;;;;;;1694551;29;20258;-72
2022/04/04 09:05:10;;;;;;;8.00;7.40;;;8.60;97.20;;;;;;1694500;29;20246;-72
2022/04/04 09:06:03;;;;;;;7.00;6.40;;;8.70;97.20;;;;;;1694519;29;20560;-71
2022/04/04 09:06:56;;;;;;;7.55;6.85;;;8.80;97.20;;;;;;1694468;29;20483;-71
2022/04/04 09:08:00;;;;;;;7.50;6.70;;;8.90;97.20;;;;;;1694434;29;20562;-72
2022/04/04 09:08:52;;;;;;;7.53;6.93;;;9.20;97.20;;;;;;1695453;29;20208;-73
2022/04/04 09:09:46;;;;;;;7.55;6.95;;;9.60;97.20;;;;;;1700992;29;20203;-71
2022/04/04 09:10:40;;;;;;;8.45;7.72;;;10.40;97.20;;;;;;1701060;29;20203;-72
2022/04/04 09:11:31;;;;;;;8.15;7.45;;;11.40;95.70;;;;;;1700912;29;20211;-71
2022/04/04 09:12:24;;;;;;;8.70;7.88;;;12.20;92.60;;;;;;1700988;29;20573;-71
2022/04/04 09:13:17;;;;;;;7.70;7.10;;;12.70;90.30;;;;;;1701030;29;20231;-70
2022/04/04 09:14:08;;;;;;;8.10;7.35;;;13.10;88.70;;;;;;1700755;29;20290;-70
2022/04/04 09:15:00;;;;;;;7.73;7.03;;;13.60;87.50;;;;;;1700992;29;20207;-70
2022/04/04 09:15:52;;;;;;;8.20;7.50;;;14.40;86.00;;;;;;1700936;29;20639;-71
2022/04/04 09:16:55;;;;;;;7.72;7.13;;;15.20;84.10;;;;;;1700908;29;20202;-70
2022/04/04 09:17:46;;;;;;;7.88;7.28;;;16.30;83.20;;;;;;1701036;29;20667;-70
2022/04/04 09:18:49;;;;;;;6.72;6.22;;;17.30;81.10;;;;;;1700603;29;20214;-70
2022/04/04 09:19:41;;;;;;;8.50;7.80;;;18.30;79.00;;;;;;1700551;29;20692;-70
2022/04/04 09:20:33;;;;;;;7.75;7.05;;;19.30;76.70;;;;;;1700855;29;20659;-71
2022/04/04 09:21:33;;;;;;;7.72;7.07;;;20.00;75.20;;;;;;1700943;29;20581;-70
2022/04/04 09:22:25;;;;;;;6.85;6.13;;;21.00;74.90;;;;;;1700904;29;20210;-70
2022/04/04 09:23:16;;;;;;;7.63;6.93;;;22.00;73.80;;;;;;1700887;29;20210;-70
2022/04/04 09:24:11;;;;;;;7.78;7.13;;;22.80;72.20;;;;;;1700881;29;20640;-71
2022/04/04 09:25:02;;;;;;;7.07;6.47;;;23.60;68.90;;;;;;1701005;29;20207;-70
2022/04/04 09:25:54;;;;;;;7.35;6.75;;;24.40;68.00;;;;;;1700860;29;20274;-70
2022/04/04 09:26:45;;;;;;;8.25;7.43;;;25.30;67.60;;;;;;1700877;29;20346;-71
2022/04/04 09:27:37;;;;;;;6.78;6.28;;;26.20;66.40;;;;;;1700957;29;20234;-70
2022/04/04 09:28:28;;;;;;;8.35;7.63;;;27.00;65.40;;;;;;1700521;29;20294;-71
2022/04/04 09:29:22;;;;;;;7.57;6.77;;;27.90;63.90;;;;;;1700155;29;20258;-71